Time;durP1;ratioP1;P1;durP2;ratioP2;P2;SDS_P1;SDS_P2;PMS_P1;PMS_P2;Temp;Humidity;BMP_temperature;BMP_pressure;BME280_temperature;BME280_humidity;BME280_pressure;Samples;Min_cycle;Max_cycle;Signal;HPM_P1;HPM_P2
2023/05/01 00:02:21;;;;;;;9.52;4.47;;;9.20;99.90;;;;;;5115364;28;20085;-68
2023/05/01 00:04:46;;;;;;;6.90;4.65;;;9.20;99.90;;;;;;5114897;28;20478;-67
2023/05/01 00:07:12;;;;;;;9.65;4.80;;;9.20;99.90;;;;;;5115152;28;20088;-68
2023/05/01 00:09:37;;;;;;;7.18;4.35;;;9.20;99.90;;;;;;5115294;28;20118;-68
2023/05/01 00:12:03;;;;;;;13.00;5.72;;;9.20;99.90;;;;;;5115218;28;20075;-67
2023/05/01 00:14:29;;;;;;;13.95;5.03;;;9.20;99.90;;;;;;5114918;28;20036;-67
2023/05/01 00:16:55;;;;;;;13.65;4.95;;;9.20;99.90;;;;;;5114703;28;20031;-68
2023/05/01 00:19:20;;;;;;;8.88;5.38;;;9.20;99.90;;;;;;5113561;28;20414;-67
2023/05/01 00:21:47;;;;;;;12.40;4.70;;;9.10;99.90;;;;;;5115083;28;20031;-67
2023/05/01 00:24:16;;;;;;;12.65;4.60;;;9.20;99.90;;;;;;5113564;28;20077;-68
2023/05/01 00:26:41;;;;;;;10.40;4.72;;;9.10;99.90;;;;;;5114662;28;20036;-67
2023/05/01 00:29:07;;;;;;;11.48;4.85;;;9.10;99.90;;;;;;5114796;28;20472;-67
2023/05/01 00:31:33;;;;;;;8.95;4.60;;;9.10;99.90;;;;;;5114837;28;20036;-68
2023/05/01 00:33:58;;;;;;;11.45;4.03;;;9.10;99.90;;;;;;5114569;28;20120;-67
2023/05/01 00:36:24;;;;;;;7.40;5.32;;;9.10;99.90;;;;;;5114257;28;20042;-68
2023/05/01 00:38:49;;;;;;;6.55;4.45;;;9.10;99.90;;;;;;5114338;28;20036;-67
2023/05/01 00:41:15;;;;;;;11.55;4.80;;;9.00;99.90;;;;;;5114637;28;20046;-67
2023/05/01 00:43:41;;;;;;;13.50;5.18;;;9.10;99.90;;;;;;5114462;28;20352;-68
2023/05/01 00:46:07;;;;;;;9.27;4.95;;;9.00;99.90;;;;;;5114283;28;20071;-67
2023/05/01 00:48:33;;;;;;;9.57;4.35;;;9.00;99.90;;;;;;5114105;28;20402;-67
2023/05/01 00:51:00;;;;;;;6.70;4.05;;;9.00;99.90;;;;;;5114155;28;20039;-67
2023/05/01 00:53:27;;;;;;;10.02;5.55;;;9.00;99.90;;;;;;5114254;28;20502;-67
2023/05/01 00:55:55;;;;;;;11.95;4.28;;;9.00;99.90;;;;;;5114248;28;20043;-67
2023/05/01 00:58:20;;;;;;;10.35;4.43;;;8.90;99.90;;;;;;5113907;28;20491;-67
2023/05/01 01:00:48;;;;;;;10.07;4.22;;;8.90;99.90;;;;;;5114118;28;20084;-68
2023/05/01 01:03:13;;;;;;;9.07;5.00;;;8.90;99.90;;;;;;5112844;28;20047;-68
2023/05/01 01:05:48;;;;;;;10.38;4.65;;;9.00;99.90;;;;;;5114095;28;20042;-68
2023/05/01 01:08:28;;;;;;;8.25;4.68;;;9.00;99.90;;;;;;5113791;28;20043;-68
2023/05/01 01:10:58;;;;;;;10.27;5.53;;;9.00;99.90;;;;;;5114016;28;20511;-68
2023/05/01 01:13:38;;;;;;;11.38;4.13;;;9.00;99.90;;;;;;5113784;28;20054;-68
2023/05/01 01:16:13;;;;;;;6.85;3.83;;;8.90;99.90;;;;;;5113973;28;20092;-67
2023/05/01 01:18:50;;;;;;;7.05;4.28;;;8.90;99.90;;;;;;5113677;28;20036;-67
2023/05/01 01:21:32;;;;;;;7.60;4.00;;;8.90;99.90;;;;;;5112604;28;20414;-68
2023/05/01 01:24:39;;;;;;;8.27;4.97;;;8.90;99.90;;;;;;5113466;28;20072;-68
2023/05/01 01:27:31;;;;;;;5.50;4.10;;;8.80;99.90;;;;;;5112932;28;20039;-68
2023/05/01 01:30:16;;;;;;;8.02;4.15;;;8.80;99.90;;;;;;5113587;28;20036;-68
2023/05/01 01:33:03;;;;;;;7.78;4.80;;;8.70;99.90;;;;;;5113563;28;20122;-68
2023/05/01 01:35:30;;;;;;;7.82;4.55;;;8.70;99.90;;;;;;5113380;28;20039;-68
2023/05/01 01:38:08;;;;;;;9.73;4.97;;;8.80;99.90;;;;;;5111775;28;20044;-68
2023/05/01 01:40:57;;;;;;;7.97;4.65;;;8.80;99.90;;;;;;5113321;28;20445;-68
2023/05/01 01:43:25;;;;;;;11.30;4.75;;;8.70;99.90;;;;;;5113094;28;20130;-67
2023/05/01 01:45:57;;;;;;;10.98;4.93;;;8.70;99.90;;;;;;5113133;28;20039;-67
2023/05/01 01:48:33;;;;;;;10.13;5.10;;;8.70;99.90;;;;;;5112977;27;20047;-67
2023/05/01 01:51:03;;;;;;;8.95;5.45;;;8.70;99.90;;;;;;5113114;28;20039;-68
2023/05/01 01:53:31;;;;;;;8.00;4.53;;;8.70;99.90;;;;;;5111990;28;20545;-68
2023/05/01 01:56:01;;;;;;;9.50;4.65;;;8.70;99.90;;;;;;5111828;28;20065;-68
2023/05/01 01:58:28;;;;;;;8.32;4.35;;;8.70;99.90;;;;;;5111471;28;20054;-67
2023/05/01 02:00:56;;;;;;;8.45;4.18;;;8.70;99.90;;;;;;5112957;28;20047;-68
2023/05/01 02:03:23;;;;;;;9.98;4.82;;;8.70;99.90;;;;;;5112784;28;20044;-67
2023/05/01 02:05:50;;;;;;;12.07;5.50;;;8.70;99.90;;;;;;5111421;28;20032;-68
2023/05/01 02:08:17;;;;;;;8.35;4.93;;;8.70;99.90;;;;;;5111295;28;20039;-68
2023/05/01 02:10:44;;;;;;;8.63;4.88;;;8.60;99.90;;;;;;5111684;28;20441;-68
2023/05/01 02:13:12;;;;;;;10.57;5.00;;;8.70;99.90;;;;;;5112733;28;20065;-68
2023/05/01 02:15:39;;;;;;;7.68;4.97;;;8.60;99.90;;;;;;5112624;28;20487;-67
2023/05/01 02:18:05;;;;;;;8.57;4.95;;;8.60;99.90;;;;;;5112395;28;20046;-67
2023/05/01 02:20:32;;;;;;;10.00;5.32;;;8.60;99.90;;;;;;5112601;28;20043;-67
2023/05/01 02:22:58;;;;;;;13.38;5.28;;;8.50;99.90;;;;;;5111156;28;20165;-67
2023/05/01 02:25:25;;;;;;;9.20;5.15;;;8.50;99.90;;;;;;5112460;28;20046;-68
2023/05/01 02:28:00;;;;;;;10.63;5.10;;;8.50;99.90;;;;;;5112333;28;20039;-68
2023/05/01 02:30:26;;;;;;;10.05;5.30;;;8.50;99.90;;;;;;5111220;28;20036;-68
2023/05/01 02:32:51;;;;;;;9.45;4.88;;;8.50;99.90;;;;;;5112281;28;20050;-68
2023/05/01 02:35:17;;;;;;;6.88;4.97;;;8.50;99.90;;;;;;5110974;28;20504;-67
2023/05/01 02:37:44;;;;;;;10.32;5.32;;;8.50;99.90;;;;;;5092934;28;20044;-67
2023/05/01 02:40:13;;;;;;;8.80;5.97;;;8.40;99.90;;;;;;5112433;28;20043;-68
2023/05/01 02:42:42;;;;;;;9.93;5.10;;;8.40;99.90;;;;;;5112374;28;20088;-67
2023/05/01 02:45:11;;;;;;;13.35;6.03;;;8.30;99.90;;;;;;5112079;28;20086;-67
2023/05/01 02:47:41;;;;;;;8.02;4.65;;;8.30;99.90;;;;;;5111981;28;20040;-68
2023/05/01 02:50:07;;;;;;;11.05;5.50;;;8.30;99.90;;;;;;5112338;28;20046;-68
2023/05/01 02:52:35;;;;;;;8.38;5.10;;;8.20;99.90;;;;;;5112269;28;20470;-67
2023/05/01 02:55:02;;;;;;;9.32;5.18;;;8.20;99.90;;;;;;5111931;28;20106;-68
2023/05/01 02:57:27;;;;;;;8.40;5.05;;;8.20;99.90;;;;;;5111969;28;20040;-67
2023/05/01 02:59:53;;;;;;;8.57;5.72;;;8.20;99.90;;;;;;5112000;28;20126;-67
2023/05/01 03:02:19;;;;;;;7.45;4.57;;;8.20;99.90;;;;;;5110679;28;20126;-67
2023/05/01 03:04:44;;;;;;;8.82;5.28;;;8.20;99.90;;;;;;5111885;28;20046;-67
2023/05/01 03:07:10;;;;;;;11.30;6.75;;;8.20;99.90;;;;;;5112042;28;20061;-67
2023/05/01 03:09:35;;;;;;;13.10;5.60;;;8.20;99.90;;;;;;5111830;28;20082;-67
2023/05/01 03:12:01;;;;;;;9.73;4.75;;;8.10;99.90;;;;;;5112110;28;20066;-68
2023/05/01 03:14:27;;;;;;;14.63;5.30;;;8.10;99.90;;;;;;5111833;28;20035;-68
2023/05/01 03:16:53;;;;;;;16.42;7.65;;;8.10;99.90;;;;;;5110388;28;20126;-67
2023/05/01 03:19:19;;;;;;;7.97;5.03;;;8.10;99.90;;;;;;5112027;28;20036;-67
2023/05/01 03:21:44;;;;;;;14.90;5.57;;;8.00;99.90;;;;;;5111885;28;20549;-68
2023/05/01 03:24:10;;;;;;;9.77;5.68;;;8.00;99.90;;;;;;5111796;28;20038;-68
2023/05/01 03:26:36;;;;;;;11.80;5.07;;;7.90;99.90;;;;;;5111656;28;20036;-67
2023/05/01 03:29:01;;;;;;;12.82;5.70;;;8.00;99.90;;;;;;5111667;28;20047;-68
2023/05/01 03:31:28;;;;;;;8.40;5.53;;;8.00;99.90;;;;;;5111670;28;20043;-67
2023/05/01 03:33:53;;;;;;;11.82;5.80;;;8.00;99.90;;;;;;5111889;28;20046;-68
2023/05/01 03:36:21;;;;;;;11.30;6.18;;;7.90;99.90;;;;;;5111576;28;20061;-67
2023/05/01 03:38:46;;;;;;;10.95;5.53;;;7.90;99.90;;;;;;5110476;28;20075;-68
2023/05/01 03:41:12;;;;;;;9.45;5.53;;;7.90;99.90;;;;;;5111774;28;20074;-67
2023/05/01 03:43:38;;;;;;;12.43;6.43;;;7.80;99.90;;;;;;5110401;28;20062;-68
2023/05/01 03:46:03;;;;;;;9.23;5.90;;;7.80;99.90;;;;;;5111410;28;20519;-68
2023/05/01 03:48:29;;;;;;;11.00;6.00;;;7.80;99.90;;;;;;5111667;28;20040;-68
2023/05/01 03:50:55;;;;;;;10.98;6.35;;;7.80;99.90;;;;;;5111500;27;20494;-68
2023/05/01 03:53:21;;;;;;;10.50;5.70;;;7.80;99.90;;;;;;5114344;28;20039;-68
2023/05/01 03:55:47;;;;;;;9.95;6.43;;;7.70;99.90;;;;;;5115208;28;20048;-67
2023/05/01 03:58:12;;;;;;;16.55;6.90;;;7.70;99.90;;;;;;5114987;28;20035;-68
2023/05/01 04:00:38;;;;;;;10.07;5.88;;;7.70;99.90;;;;;;5115207;28;20081;-68
2023/05/01 04:03:03;;;;;;;10.75;7.13;;;7.60;99.90;;;;;;5115184;28;20043;-68
2023/05/01 04:05:29;;;;;;;10.75;5.65;;;7.70;99.90;;;;;;5115162;28;20032;-68
2023/05/01 04:07:56;;;;;;;12.70;6.07;;;7.70;99.90;;;;;;5114906;28;20104;-67
2023/05/01 04:10:22;;;;;;;12.85;5.65;;;7.60;99.90;;;;;;5114979;28;20445;-67
2023/05/01 04:12:47;;;;;;;9.82;5.90;;;7.60;99.90;;;;;;5114873;28;20043;-68
2023/05/01 04:15:13;;;;;;;9.98;5.68;;;7.60;99.90;;;;;;5115145;28;20035;-68
2023/05/01 04:17:39;;;;;;;8.55;5.63;;;7.60;99.90;;;;;;5113364;28;20082;-68
2023/05/01 04:20:05;;;;;;;9.57;5.75;;;7.60;99.90;;;;;;5115065;28;20127;-68
2023/05/01 04:22:31;;;;;;;11.15;5.68;;;7.60;99.90;;;;;;5114849;28;20050;-68
2023/05/01 04:24:57;;;;;;;10.68;5.60;;;7.60;99.90;;;;;;5114605;28;20040;-67
2023/05/01 04:27:23;;;;;;;8.10;5.78;;;7.60;99.90;;;;;;5113169;28;20035;-67
2023/05/01 04:29:49;;;;;;;12.45;5.50;;;7.60;99.90;;;;;;5114725;28;20452;-68
2023/05/01 04:32:16;;;;;;;10.15;5.93;;;7.60;99.90;;;;;;5114913;28;20032;-69
2023/05/01 04:34:42;;;;;;;9.13;5.57;;;7.60;99.90;;;;;;5114819;28;20046;-69
2023/05/01 04:37:08;;;;;;;8.02;5.18;;;7.60;99.90;;;;;;5114523;28;20048;-69
2023/05/01 04:39:35;;;;;;;9.50;5.32;;;7.70;99.90;;;;;;5134652;22;20050;-70
2023/05/01 04:42:01;;;;;;;10.60;5.97;;;7.60;99.90;;;;;;5112681;28;20042;-70
2023/05/01 04:44:27;;;;;;;11.05;6.05;;;7.60;99.90;;;;;;5114543;28;20035;-70
2023/05/01 04:46:53;;;;;;;10.70;6.50;;;7.70;99.90;;;;;;5114082;28;20051;-71
2023/05/01 04:49:18;;;;;;;11.27;5.60;;;7.70;99.90;;;;;;5096279;28;20043;-70
2023/05/01 04:51:44;;;;;;;8.30;5.55;;;7.80;99.90;;;;;;5114356;28;20035;-70
2023/05/01 04:54:10;;;;;;;12.40;5.88;;;7.80;99.90;;;;;;5114309;28;20083;-70
2023/05/01 04:56:36;;;;;;;18.90;8.75;;;7.90;99.90;;;;;;5112707;28;20491;-70
2023/05/01 04:59:01;;;;;;;13.05;6.32;;;7.90;99.90;;;;;;5114132;28;20036;-70
2023/05/01 05:01:27;;;;;;;8.02;5.32;;;8.00;99.90;;;;;;5113273;28;20036;-70
2023/05/01 05:03:52;;;;;;;11.57;5.70;;;8.10;99.90;;;;;;5114034;28;20040;-70
2023/05/01 05:06:18;;;;;;;11.57;5.90;;;8.20;99.90;;;;;;5112570;28;20061;-70
2023/05/01 05:08:44;;;;;;;10.85;5.15;;;8.30;99.90;;;;;;5112700;28;20089;-70
2023/05/01 05:11:09;;;;;;;11.40;5.25;;;8.30;99.90;;;;;;5112732;28;20088;-70
2023/05/01 05:13:35;;;;;;;16.42;6.18;;;8.40;99.90;;;;;;5114281;28;20040;-70
2023/05/01 05:16:00;;;;;;;9.32;5.57;;;8.50;99.90;;;;;;5113855;28;20051;-70
2023/05/01 05:18:26;;;;;;;10.60;5.13;;;8.60;99.90;;;;;;5112419;28;20032;-71
2023/05/01 05:20:52;;;;;;;15.05;5.40;;;8.60;99.90;;;;;;5113912;28;20458;-71
2023/05/01 05:23:17;;;;;;;14.82;6.63;;;8.70;99.90;;;;;;5113635;28;20036;-71
2023/05/01 05:25:43;;;;;;;11.50;5.95;;;8.80;99.90;;;;;;5113398;28;20510;-71
2023/05/01 05:28:08;;;;;;;10.90;7.05;;;9.00;99.90;;;;;;5113592;28;20038;-70
2023/05/01 05:30:34;;;;;;;10.23;6.03;;;9.10;99.90;;;;;;5113763;28;20117;-72
2023/05/01 05:32:59;;;;;;;9.30;6.22;;;9.30;99.90;;;;;;5113492;28;20036;-71
2023/05/01 05:35:26;;;;;;;10.43;6.38;;;9.40;99.90;;;;;;5113335;28;20117;-71
2023/05/01 05:37:51;;;;;;;12.50;6.15;;;9.60;99.90;;;;;;5112874;28;20036;-69
2023/05/01 05:40:18;;;;;;;11.98;6.65;;;9.70;99.90;;;;;;5112261;28;20092;-71
2023/05/01 05:42:43;;;;;;;11.90;6.63;;;9.70;99.90;;;;;;5112027;28;20035;-71
2023/05/01 05:45:09;;;;;;;9.80;6.70;;;9.60;99.90;;;;;;5112047;28;20043;-70
2023/05/01 05:47:35;;;;;;;13.02;6.70;;;9.60;99.90;;;;;;5113074;28;20483;-70
2023/05/01 05:50:01;;;;;;;12.98;6.88;;;9.60;99.90;;;;;;5112022;28;20110;-70
2023/05/01 05:52:26;;;;;;;9.68;6.68;;;9.60;99.90;;;;;;5113230;28;20481;-71
2023/05/01 05:54:55;;;;;;;9.18;5.97;;;9.60;99.90;;;;;;5112862;28;20097;-70
2023/05/01 05:57:20;;;;;;;13.32;7.28;;;9.70;99.90;;;;;;5113184;28;20035;-71
2023/05/01 05:59:46;;;;;;;13.93;6.43;;;9.80;99.90;;;;;;5111932;28;20088;-71
2023/05/01 06:02:12;;;;;;;11.00;6.07;;;10.00;99.90;;;;;;5113000;28;20068;-71
2023/05/01 06:04:38;;;;;;;11.25;6.60;;;10.20;99.90;;;;;;5094719;28;20495;-70
2023/05/01 06:07:05;;;;;;;12.50;5.90;;;10.40;99.90;;;;;;5112683;28;20046;-69
2023/05/01 06:09:30;;;;;;;10.38;6.28;;;10.70;99.90;;;;;;5111534;28;20044;-71
2023/05/01 06:11:57;;;;;;;9.50;5.68;;;10.90;99.90;;;;;;5112826;28;20137;-71
2023/05/01 06:14:22;;;;;;;12.23;6.25;;;11.00;99.90;;;;;;5112865;28;20052;-70
2023/05/01 06:16:48;;;;;;;13.43;5.97;;;11.10;99.90;;;;;;5111437;28;20054;-70
2023/05/01 06:19:14;;;;;;;11.18;6.47;;;11.20;99.90;;;;;;5111289;28;20040;-70
2023/05/01 06:21:40;;;;;;;8.25;6.25;;;11.30;99.90;;;;;;5111384;28;20074;-69
2023/05/01 06:24:05;;;;;;;12.82;6.45;;;11.30;99.90;;;;;;5112384;28;20077;-70
2023/05/01 06:26:31;;;;;;;12.00;6.97;;;11.50;99.90;;;;;;5112484;28;20032;-70
2023/05/01 06:28:57;;;;;;;9.10;6.53;;;11.50;99.90;;;;;;5112424;28;20036;-69
2023/05/01 06:31:22;;;;;;;10.75;6.38;;;11.60;99.90;;;;;;5101892;28;20038;-70
2023/05/01 06:33:48;;;;;;;10.52;5.65;;;11.60;99.90;;;;;;5092102;28;20127;-69
2023/05/01 06:36:13;;;;;;;12.50;6.63;;;11.70;99.90;;;;;;5090618;28;20054;-69
2023/05/01 06:38:41;;;;;;;9.93;5.95;;;11.70;99.90;;;;;;5090611;28;20044;-70
2023/05/01 06:41:06;;;;;;;13.18;6.93;;;11.80;99.90;;;;;;5092135;28;20040;-68
2023/05/01 06:43:32;;;;;;;11.48;6.57;;;12.00;99.90;;;;;;5090734;28;20051;-68
2023/05/01 06:45:58;;;;;;;10.63;5.88;;;12.30;99.90;;;;;;5090536;28;20088;-68
2023/05/01 06:48:23;;;;;;;9.52;6.80;;;12.40;99.90;;;;;;5090608;28;20066;-70
2023/05/01 06:50:49;;;;;;;11.27;6.20;;;12.60;99.90;;;;;;5090610;28;20492;-70
2023/05/01 06:53:14;;;;;;;10.15;6.25;;;12.70;99.90;;;;;;5073715;28;20122;-70
2023/05/01 06:55:40;;;;;;;12.07;6.30;;;12.90;99.90;;;;;;5091928;28;20113;-70
2023/05/01 06:58:05;;;;;;;10.65;5.95;;;12.90;99.90;;;;;;5090427;28;20184;-70
2023/05/01 07:00:32;;;;;;;15.10;6.40;;;13.00;99.90;;;;;;5091913;28;20084;-69
2023/05/01 07:02:58;;;;;;;14.50;6.43;;;13.10;99.90;;;;;;5091814;28;20123;-70
2023/05/01 07:05:24;;;;;;;20.00;7.55;;;13.10;99.80;;;;;;5091531;28;20119;-70
2023/05/01 07:07:49;;;;;;;9.10;5.88;;;13.20;99.00;;;;;;5093589;28;20423;-69
2023/05/01 07:10:15;;;;;;;11.70;5.72;;;13.20;98.70;;;;;;5092498;28;20036;-69
2023/05/01 07:12:41;;;;;;;9.20;5.95;;;13.30;98.40;;;;;;5091447;28;20115;-69
2023/05/01 07:15:07;;;;;;;9.40;5.35;;;13.50;98.20;;;;;;5103403;28;20429;-69
2023/05/01 07:17:33;;;;;;;12.13;7.03;;;13.60;97.90;;;;;;5111553;28;20410;-69
2023/05/01 07:20:00;;;;;;;11.40;5.32;;;13.80;97.80;;;;;;5103401;28;20076;-69
2023/05/01 07:22:25;;;;;;;7.97;5.35;;;14.00;97.20;;;;;;5112173;28;20383;-70
2023/05/01 07:24:51;;;;;;;10.38;6.18;;;14.10;96.70;;;;;;5114304;28;20089;-70
2023/05/01 07:27:16;;;;;;;11.00;5.70;;;14.30;96.20;;;;;;5116003;28;20040;-70
2023/05/01 07:29:43;;;;;;;11.88;6.10;;;14.60;95.30;;;;;;5115895;28;20080;-71
2023/05/01 07:32:09;;;;;;;13.75;5.85;;;14.80;95.20;;;;;;5115897;28;20035;-69
2023/05/01 07:34:34;;;;;;;9.13;5.82;;;15.00;94.90;;;;;;5112906;28;20104;-70
2023/05/01 07:37:00;;;;;;;13.68;7.15;;;15.20;93.80;;;;;;5108711;28;20083;-70
2023/05/01 07:39:25;;;;;;;12.10;6.32;;;15.30;93.60;;;;;;5112332;28;20035;-69
2023/05/01 07:41:51;;;;;;;12.45;7.00;;;15.40;93.10;;;;;;5115752;28;20040;-70
2023/05/01 07:44:17;;;;;;;11.00;6.03;;;15.70;92.20;;;;;;5115714;28;20415;-70
2023/05/01 07:46:42;;;;;;;12.18;5.80;;;15.80;91.50;;;;;;5114141;28;20035;-70
2023/05/01 07:49:08;;;;;;;9.20;5.82;;;15.80;90.60;;;;;;5115494;28;20124;-70
2023/05/01 07:51:34;;;;;;;9.48;5.55;;;16.00;90.60;;;;;;5115463;28;20035;-70
2023/05/01 07:54:03;;;;;;;9.30;5.80;;;16.20;90.00;;;;;;5114385;28;20043;-69
2023/05/01 07:56:30;;;;;;;8.75;5.75;;;16.40;89.40;;;;;;5115312;28;20047;-69
2023/05/01 07:58:55;;;;;;;10.85;5.22;;;16.70;89.10;;;;;;5097085;28;20092;-70
2023/05/01 08:01:21;;;;;;;12.15;5.68;;;16.80;87.30;;;;;;5115386;28;20036;-70
2023/05/01 08:03:47;;;;;;;10.55;6.50;;;16.90;86.10;;;;;;5115108;28;20039;-70
2023/05/01 08:06:12;;;;;;;8.18;5.53;;;17.10;85.30;;;;;;5115213;28;20457;-70
2023/05/01 08:08:38;;;;;;;10.10;5.43;;;17.10;84.30;;;;;;5115180;28;20058;-70
2023/05/01 08:11:04;;;;;;;9.10;5.38;;;17.30;83.50;;;;;;5115327;28;20032;-70
2023/05/01 08:13:29;;;;;;;12.15;5.60;;;17.40;83.50;;;;;;5115334;28;20039;-70
2023/05/01 08:15:59;;;;;;;10.93;5.88;;;17.60;83.00;;;;;;5111323;28;20040;-70
2023/05/01 08:18:24;;;;;;;7.22;4.55;;;17.40;82.50;;;;;;5114531;27;20071;-71
2023/05/01 08:20:50;;;;;;;8.63;4.55;;;17.60;82.10;;;;;;5113630;28;20079;-70
2023/05/01 08:23:16;;;;;;;7.53;4.55;;;17.80;80.50;;;;;;5114921;28;20407;-70
2023/05/01 08:25:42;;;;;;;7.32;3.92;;;18.10;81.10;;;;;;5114629;28;20043;-70
2023/05/01 08:28:08;;;;;;;10.00;5.03;;;17.90;80.30;;;;;;5114772;28;20027;-70
2023/05/01 08:30:33;;;;;;;13.07;6.05;;;17.80;79.20;;;;;;5114811;28;20114;-70
2023/05/01 08:32:59;;;;;;;10.75;4.45;;;17.70;78.90;;;;;;5113364;28;20071;-70
2023/05/01 08:35:25;;;;;;;10.65;4.53;;;17.90;78.30;;;;;;5112132;28;20130;-69
2023/05/01 08:37:51;;;;;;;10.43;4.28;;;18.00;80.00;;;;;;5114480;28;20047;-70
2023/05/01 08:40:16;;;;;;;9.93;5.90;;;17.90;78.90;;;;;;5113376;28;20039;-70
2023/05/01 08:42:42;;;;;;;9.63;5.45;;;17.80;76.50;;;;;;5114687;28;20047;-70
2023/05/01 08:45:09;;;;;;;8.27;4.65;;;17.60;76.20;;;;;;5113073;28;20123;-69
2023/05/01 08:47:39;;;;;;;10.85;4.72;;;17.50;75.90;;;;;;5114112;28;20566;-69
2023/05/01 08:50:10;;;;;;;7.85;4.75;;;17.80;75.60;;;;;;5113438;28;20040;-70
2023/05/01 08:52:39;;;;;;;6.50;4.05;;;17.70;74.20;;;;;;5113406;28;20031;-70
2023/05/01 08:55:08;;;;;;;10.38;4.22;;;18.00;75.60;;;;;;5114321;28;20035;-70
2023/05/01 08:57:35;;;;;;;11.02;5.18;;;18.30;74.60;;;;;;5114089;27;20047;-70
2023/05/01 09:00:04;;;;;;;6.22;4.30;;;18.60;75.30;;;;;;5114206;28;20040;-70
2023/05/01 09:02:33;;;;;;;6.68;4.45;;;18.70;76.80;;;;;;5114444;28;20422;-70
2023/05/01 09:05:01;;;;;;;8.77;4.18;;;19.00;76.30;;;;;;5114076;28;20044;-70
2023/05/01 09:07:26;;;;;;;8.38;4.22;;;19.20;74.70;;;;;;5114113;28;20444;-69
2023/05/01 09:09:52;;;;;;;10.63;4.25;;;19.20;76.10;;;;;;5112528;28;20123;-70
2023/05/01 09:12:27;;;;;;;7.28;4.07;;;19.30;74.80;;;;;;5114053;28;20031;-70
2023/05/01 09:14:54;;;;;;;13.85;4.50;;;19.20;74.80;;;;;;5113687;28;20047;-70
2023/05/01 09:17:21;;;;;;;6.63;4.22;;;19.20;73.70;;;;;;5113946;28;20044;-70
2023/05/01 09:19:50;;;;;;;9.63;4.55;;;19.10;73.50;;;;;;5113031;28;20047;-70
2023/05/01 09:22:17;;;;;;;11.50;4.65;;;18.90;68.90;;;;;;5102978;28;20115;-71
2023/05/01 09:24:43;;;;;;;9.90;4.00;;;18.80;68.50;;;;;;5102658;28;20048;-69
2023/05/01 09:27:13;;;;;;;7.25;3.72;;;19.00;68.40;;;;;;5102236;28;20081;-69
2023/05/01 09:29:41;;;;;;;8.48;4.43;;;19.10;67.20;;;;;;5106409;28;20039;-70
2023/05/01 09:32:13;;;;;;;6.75;4.40;;;19.10;66.10;;;;;;5113762;28;20061;-70
2023/05/01 09:34:38;;;;;;;8.93;3.88;;;19.10;67.00;;;;;;5112528;28;20093;-70
2023/05/01 09:37:05;;;;;;;7.05;3.20;;;19.30;67.60;;;;;;5112975;28;20473;-70
2023/05/01 09:39:30;;;;;;;6.40;3.08;;;19.50;68.30;;;;;;5113253;28;20043;-70
2023/05/01 09:41:56;;;;;;;5.55;3.03;;;19.50;68.90;;;;;;5113314;28;20031;-70
2023/05/01 09:44:22;;;;;;;15.00;3.50;;;19.40;70.30;;;;;;5111906;28;20093;-70
2023/05/01 09:46:48;;;;;;;6.18;2.58;;;19.30;68.20;;;;;;5111378;28;20043;-70
2023/05/01 09:49:14;;;;;;;6.20;3.13;;;19.10;67.00;;;;;;5113103;28;20560;-70
2023/05/01 09:51:40;;;;;;;6.10;2.88;;;19.00;64.20;;;;;;5113288;28;20074;-70
2023/05/01 09:54:19;;;;;;;8.00;2.63;;;19.40;66.30;;;;;;5112903;28;20490;-70
2023/05/01 09:56:47;;;;;;;5.55;2.60;;;19.40;65.40;;;;;;5111921;28;20043;-70
2023/05/01 09:59:19;;;;;;;5.63;2.22;;;19.40;66.60;;;;;;5113011;28;20040;-70
2023/05/01 10:01:47;;;;;;;5.05;1.92;;;19.20;64.20;;;;;;5111763;28;20043;-70
2023/05/01 10:04:13;;;;;;;5.82;2.60;;;19.10;65.30;;;;;;5112951;28;20081;-70
2023/05/01 10:06:39;;;;;;;8.95;3.30;;;19.00;64.70;;;;;;5112719;28;20036;-70
2023/05/01 10:09:07;;;;;;;6.78;2.30;;;19.00;63.20;;;;;;5112727;28;20043;-70
2023/05/01 10:11:54;;;;;;;8.90;3.50;;;18.90;63.40;;;;;;5113081;28;20058;-70
2023/05/01 10:14:22;;;;;;;6.60;2.60;;;18.90;62.60;;;;;;5112905;28;20437;-70
2023/05/01 10:16:48;;;;;;;6.53;2.38;;;18.40;61.80;;;;;;5112476;28;20044;-71
2023/05/01 10:19:16;;;;;;;4.32;2.65;;;18.50;61.90;;;;;;5112577;28;20039;-70
2023/05/01 10:21:41;;;;;;;6.88;2.70;;;18.50;64.00;;;;;;5112955;28;20043;-70
2023/05/01 10:24:08;;;;;;;5.18;2.42;;;18.40;62.20;;;;;;5112503;28;20096;-70
2023/05/01 10:26:35;;;;;;;4.40;1.95;;;18.40;61.90;;;;;;5112394;28;20075;-70
2023/05/01 10:29:03;;;;;;;3.35;2.15;;;18.30;63.30;;;;;;5111881;28;20044;-70
2023/05/01 10:31:31;;;;;;;3.88;2.50;;;18.40;63.40;;;;;;5104402;28;20040;-70
2023/05/01 10:33:57;;;;;;;3.13;1.63;;;18.50;63.60;;;;;;5112658;28;20085;-70
2023/05/01 10:36:33;;;;;;;2.83;1.50;;;18.70;63.30;;;;;;5103655;28;20043;-70
2023/05/01 10:38:59;;;;;;;2.22;1.65;;;18.60;63.60;;;;;;5123094;22;20071;-67
2023/05/01 10:42:03;;;;;;;3.03;1.58;;;18.80;65.20;;;;;;5114374;28;20407;-67
2023/05/01 10:44:28;;;;;;;;;;;18.70;63.60;;;;;;5111321;28;20157;-67
2023/05/01 10:46:54;;;;;;;5.22;2.28;;;18.50;66.10;;;;;;5129744;27;20070;-67
2023/05/01 10:49:20;;;;;;;4.50;1.83;;;18.60;67.60;;;;;;5132771;27;20035;-67
2023/05/01 10:51:58;;;;;;;8.60;3.00;;;18.50;64.10;;;;;;5131373;27;20122;-67
2023/05/01 10:54:25;;;;;;;5.05;1.98;;;18.50;61.20;;;;;;5132721;27;20456;-67
2023/05/01 10:56:52;;;;;;;6.90;2.10;;;18.60;64.30;;;;;;5128965;27;20120;-67
2023/05/01 10:59:18;;;;;;;3.90;2.03;;;18.50;63.60;;;;;;5111378;28;20131;-67
2023/05/01 11:01:46;;;;;;;7.13;2.45;;;18.50;63.50;;;;;;5093883;28;20123;-67
2023/05/01 11:04:20;;;;;;;4.43;1.55;;;18.30;62.60;;;;;;5111923;28;20548;-67
2023/05/01 11:07:04;;;;;;;5.82;1.70;;;18.40;62.50;;;;;;5111668;28;20047;-67
2023/05/01 11:09:41;;;;;;;2.83;1.25;;;18.10;58.40;;;;;;5112192;28;20039;-67
2023/05/01 11:12:08;;;;;;;4.60;1.20;;;18.20;59.20;;;;;;5112183;28;20031;-67
2023/05/01 11:15:01;;;;;;;6.22;1.58;;;18.20;62.30;;;;;;5112042;28;20042;-67
2023/05/01 11:17:41;;;;;;;6.32;2.42;;;18.30;63.90;;;;;;5111862;28;20050;-67
2023/05/01 11:20:10;;;;;;;7.60;2.38;;;18.20;63.40;;;;;;5112008;28;20054;-67
2023/05/01 11:22:41;;;;;;;6.53;2.17;;;18.30;64.10;;;;;;5111907;28;20487;-67
2023/05/01 11:25:25;;;;;;;5.15;2.72;;;18.30;62.20;;;;;;5111716;28;20126;-67
2023/05/01 11:27:55;;;;;;;4.75;2.20;;;18.10;58.80;;;;;;5111610;28;20036;-67
2023/05/01 11:30:20;;;;;;;4.10;2.20;;;18.10;60.20;;;;;;5111766;28;20063;-67
2023/05/01 11:32:48;;;;;;;5.50;2.83;;;18.10;60.40;;;;;;5111989;28;20124;-67
2023/05/01 11:35:26;;;;;;;5.53;2.53;;;18.30;59.30;;;;;;5111805;28;20043;-68
2023/05/01 11:37:54;;;;;;;4.55;2.30;;;18.30;58.90;;;;;;5111736;28;20040;-67
2023/05/01 11:40:24;;;;;;;5.13;2.00;;;18.30;59.20;;;;;;5111818;28;20040;-67
2023/05/01 11:42:51;;;;;;;4.63;1.90;;;18.30;61.60;;;;;;5111657;28;20043;-67
2023/05/01 11:45:18;;;;;;;2.38;2.10;;;18.50;64.70;;;;;;5111752;28;20046;-66
2023/05/01 11:47:44;;;;;;;4.72;2.28;;;18.40;64.40;;;;;;5105254;28;20085;-67
2023/05/01 11:50:10;;;;;;;4.45;1.88;;;18.30;62.60;;;;;;5104745;28;20036;-67
2023/05/01 11:52:42;;;;;;;2.97;2.08;;;18.20;61.70;;;;;;5095632;28;20031;-67
2023/05/01 11:55:08;;;;;;;5.25;1.63;;;18.20;62.50;;;;;;5093211;28;20043;-67
2023/05/01 11:57:48;;;;;;;4.45;2.10;;;18.30;62.80;;;;;;5093293;28;20518;-67
2023/05/01 12:00:15;;;;;;;2.28;1.38;;;18.20;61.70;;;;;;5113233;28;20071;-67
2023/05/01 12:03:01;;;;;;;2.42;1.50;;;18.30;62.40;;;;;;5111639;28;20047;-67
2023/05/01 12:05:28;;;;;;;3.22;1.42;;;18.20;61.40;;;;;;5126156;28;20046;-67
2023/05/01 12:08:11;;;;;;;2.58;1.17;;;18.20;61.80;;;;;;5113602;28;20043;-67
2023/05/01 12:10:39;;;;;;;5.00;1.77;;;18.20;64.20;;;;;;5134013;27;20049;-67
2023/05/01 12:13:06;;;;;;;2.13;1.70;;;18.10;64.80;;;;;;5135791;27;20319;-67
2023/05/01 12:15:36;;;;;;;3.88;2.38;;;18.20;67.40;;;;;;5135501;27;20098;-67
2023/05/01 12:18:05;;;;;;;4.28;1.85;;;18.10;65.30;;;;;;5135286;27;20043;-67
2023/05/01 12:20:50;;;;;;;2.75;1.67;;;18.10;64.70;;;;;;5117400;27;20096;-67
2023/05/01 12:23:29;;;;;;;2.78;1.20;;;18.20;67.60;;;;;;5135583;27;20039;-66
2023/05/01 12:25:54;;;;;;;3.85;1.40;;;18.10;65.00;;;;;;5135399;27;20035;-67
2023/05/01 12:28:20;;;;;;;5.60;2.30;;;18.20;66.30;;;;;;5135165;27;20508;-67
2023/05/01 12:30:47;;;;;;;3.50;1.90;;;18.20;66.10;;;;;;5135302;27;20042;-66
2023/05/01 12:33:19;;;;;;;4.55;2.10;;;18.30;66.10;;;;;;5117381;27;20095;-67
2023/05/01 12:35:47;;;;;;;5.18;2.35;;;18.40;66.50;;;;;;5135297;27;20039;-67
2023/05/01 12:38:14;;;;;;;4.45;2.40;;;18.20;65.70;;;;;;5124663;27;20397;-67
2023/05/01 12:40:53;;;;;;;4.13;2.45;;;18.20;65.70;;;;;;5127829;27;20390;-67
2023/05/01 12:43:32;;;;;;;3.55;2.40;;;18.20;66.50;;;;;;5135240;27;20047;-67
2023/05/01 12:45:57;;;;;;;3.22;1.55;;;18.40;68.50;;;;;;5116792;27;20391;-67
2023/05/01 12:48:24;;;;;;;4.25;2.28;;;18.40;67.50;;;;;;5134968;27;20034;-67
2023/05/01 12:50:53;;;;;;;4.88;1.90;;;18.10;66.80;;;;;;5125327;27;20031;-67
2023/05/01 12:53:21;;;;;;;5.20;1.98;;;18.20;68.20;;;;;;5114388;28;20047;-67